sensor_id;sensor_type;location;lat;lon;timestamp;temperature;humidity
18384;DHT22;9318;48.644;9.456;2024-02-21T00:01:27;6.30;99.90
18384;DHT22;9318;48.644;9.456;2024-02-21T00:03:54;6.30;99.90
18384;DHT22;9318;48.644;9.456;2024-02-21T00:06:20;6.30;99.90
18384;DHT22;9318;48.644;9.456;2024-02-21T00:08:47;6.30;99.90
18384;DHT22;9318;48.644;9.456;2024-02-21T00:11:15;6.30;99.90
18384;DHT22;9318;48.644;9.456;2024-02-21T00:13:42;6.40;99.90
18384;DHT22;9318;48.644;9.456;2024-02-21T00:16:09;6.40;99.90
18384;DHT22;9318;48.644;9.456;2024-02-21T00:18:36;6.40;99.90
18384;DHT22;9318;48.644;9.456;2024-02-21T00:21:03;6.50;99.90
18384;DHT22;9318;48.644;9.456;2024-02-21T00:23:30;6.50;99.90
18384;DHT22;9318;48.644;9.456;2024-02-21T00:25:56;6.50;99.90
18384;DHT22;9318;48.644;9.456;2024-02-21T00:28:24;6.50;99.90
18384;DHT22;9318;48.644;9.456;2024-02-21T00:30:51;6.50;99.90
18384;DHT22;9318;48.644;9.456;2024-02-21T00:33:18;6.60;99.90
18384;DHT22;9318;48.644;9.456;2024-02-21T00:35:45;6.60;99.90
18384;DHT22;9318;48.644;9.456;2024-02-21T00:38:12;6.60;99.90
18384;DHT22;9318;48.644;9.456;2024-02-21T00:40:39;6.60;99.90
18384;DHT22;9318;48.644;9.456;2024-02-21T00:43:05;6.50;99.90
18384;DHT22;9318;48.644;9.456;2024-02-21T00:45:34;6.60;99.90
18384;DHT22;9318;48.644;9.456;2024-02-21T00:48:00;6.50;99.90
18384;DHT22;9318;48.644;9.456;2024-02-21T00:50:27;6.50;99.90
18384;DHT22;9318;48.644;9.456;2024-02-21T00:52:54;6.50;99.90
18384;DHT22;9318;48.644;9.456;2024-02-21T00:55:21;6.50;99.90
18384;DHT22;9318;48.644;9.456;2024-02-21T00:57:47;6.50;99.90
18384;DHT22;9318;48.644;9.456;2024-02-21T01:00:15;6.50;99.90
18384;DHT22;9318;48.644;9.456;2024-02-21T01:02:43;6.50;99.90
18384;DHT22;9318;48.644;9.456;2024-02-21T01:05:10;6.50;99.90
18384;DHT22;9318;48.644;9.456;2024-02-21T01:07:37;6.60;99.90
18384;DHT22;9318;48.644;9.456;2024-02-21T01:10:04;6.60;99.90
18384;DHT22;9318;48.644;9.456;2024-02-21T01:12:31;6.60;99.90
18384;DHT22;9318;48.644;9.456;2024-02-21T01:14:58;6.60;99.90
18384;DHT22;9318;48.644;9.456;2024-02-21T01:17:25;6.50;99.90
18384;DHT22;9318;48.644;9.456;2024-02-21T01:19:53;6.60;99.90
18384;DHT22;9318;48.644;9.456;2024-02-21T01:22:20;6.60;99.90
18384;DHT22;9318;48.644;9.456;2024-02-21T01:24:46;6.60;99.90
18384;DHT22;9318;48.644;9.456;2024-02-21T01:27:13;6.60;99.90
18384;DHT22;9318;48.644;9.456;2024-02-21T01:29:40;6.60;99.90
18384;DHT22;9318;48.644;9.456;2024-02-21T01:32:07;6.60;99.90
18384;DHT22;9318;48.644;9.456;2024-02-21T01:34:34;6.60;99.90
18384;DHT22;9318;48.644;9.456;2024-02-21T01:37:02;6.60;99.90
18384;DHT22;9318;48.644;9.456;2024-02-21T01:39:30;6.60;99.90
18384;DHT22;9318;48.644;9.456;2024-02-21T01:41:56;6.60;99.90
18384;DHT22;9318;48.644;9.456;2024-02-21T01:44:23;6.50;99.90
18384;DHT22;9318;48.644;9.456;2024-02-21T01:46:51;6.50;99.90
18384;DHT22;9318;48.644;9.456;2024-02-21T01:49:18;6.50;99.90
18384;DHT22;9318;48.644;9.456;2024-02-21T01:51:45;6.50;99.90
18384;DHT22;9318;48.644;9.456;2024-02-21T01:54:14;6.50;99.90
18384;DHT22;9318;48.644;9.456;2024-02-21T01:56:41;6.50;99.90
18384;DHT22;9318;48.644;9.456;2024-02-21T01:59:08;6.50;99.90
18384;DHT22;9318;48.644;9.456;2024-02-21T02:01:35;6.50;99.90
18384;DHT22;9318;48.644;9.456;2024-02-21T02:04:02;6.50;99.90
18384;DHT22;9318;48.644;9.456;2024-02-21T02:06:30;6.50;99.90
18384;DHT22;9318;48.644;9.456;2024-02-21T02:08:57;6.50;99.90
18384;DHT22;9318;48.644;9.456;2024-02-21T02:11:25;6.50;99.90
18384;DHT22;9318;48.644;9.456;2024-02-21T02:13:52;6.50;99.90
18384;DHT22;9318;48.644;9.456;2024-02-21T02:16:20;6.50;99.90
18384;DHT22;9318;48.644;9.456;2024-02-21T02:18:46;6.50;99.90
18384;DHT22;9318;48.644;9.456;2024-02-21T02:21:23;6.50;99.90
18384;DHT22;9318;48.644;9.456;2024-02-21T02:23:51;6.50;99.90
18384;DHT22;9318;48.644;9.456;2024-02-21T02:26:18;6.50;99.90
18384;DHT22;9318;48.644;9.456;2024-02-21T02:28:45;6.50;99.90
18384;DHT22;9318;48.644;9.456;2024-02-21T02:31:11;6.50;99.90
18384;DHT22;9318;48.644;9.456;2024-02-21T02:33:38;6.50;99.90
18384;DHT22;9318;48.644;9.456;2024-02-21T02:36:05;6.50;99.90
18384;DHT22;9318;48.644;9.456;2024-02-21T02:38:32;6.50;99.90
18384;DHT22;9318;48.644;9.456;2024-02-21T02:41:00;6.50;99.90
18384;DHT22;9318;48.644;9.456;2024-02-21T02:43:27;6.50;99.90
18384;DHT22;9318;48.644;9.456;2024-02-21T02:45:54;6.60;99.90
18384;DHT22;9318;48.644;9.456;2024-02-21T02:48:21;6.60;99.90
18384;DHT22;9318;48.644;9.456;2024-02-21T02:50:47;6.60;99.90
18384;DHT22;9318;48.644;9.456;2024-02-21T02:53:15;6.60;99.90
18384;DHT22;9318;48.644;9.456;2024-02-21T02:55:41;6.60;99.90
18384;DHT22;9318;48.644;9.456;2024-02-21T02:58:10;6.60;99.90
18384;DHT22;9318;48.644;9.456;2024-02-21T03:00:37;6.50;99.90
18384;DHT22;9318;48.644;9.456;2024-02-21T03:03:04;6.60;99.90
18384;DHT22;9318;48.644;9.456;2024-02-21T03:05:31;6.60;99.90
18384;DHT22;9318;48.644;9.456;2024-02-21T03:07:58;6.60;99.90
18384;DHT22;9318;48.644;9.456;2024-02-21T03:10:25;6.60;99.90
18384;DHT22;9318;48.644;9.456;2024-02-21T03:12:52;6.60;99.90
18384;DHT22;9318;48.644;9.456;2024-02-21T03:15:20;6.60;99.90
18384;DHT22;9318;48.644;9.456;2024-02-21T03:17:47;6.60;99.90
18384;DHT22;9318;48.644;9.456;2024-02-21T03:20:14;6.60;99.90
18384;DHT22;9318;48.644;9.456;2024-02-21T03:22:41;6.60;99.90
18384;DHT22;9318;48.644;9.456;2024-02-21T03:25:08;6.60;99.90
18384;DHT22;9318;48.644;9.456;2024-02-21T03:27:35;6.60;99.90
18384;DHT22;9318;48.644;9.456;2024-02-21T03:30:02;6.50;99.90
18384;DHT22;9318;48.644;9.456;2024-02-21T03:32:31;6.60;99.90
18384;DHT22;9318;48.644;9.456;2024-02-21T03:34:58;6.60;99.90
18384;DHT22;9318;48.644;9.456;2024-02-21T03:37:24;6.60;99.90
18384;DHT22;9318;48.644;9.456;2024-02-21T03:39:51;6.50;99.90
18384;DHT22;9318;48.644;9.456;2024-02-21T03:42:18;6.50;99.90
18384;DHT22;9318;48.644;9.456;2024-02-21T03:44:45;6.50;99.90
18384;DHT22;9318;48.644;9.456;2024-02-21T03:47:11;6.50;99.90
18384;DHT22;9318;48.644;9.456;2024-02-21T03:49:40;6.50;99.90
18384;DHT22;9318;48.644;9.456;2024-02-21T03:52:06;6.40;99.90
18384;DHT22;9318;48.644;9.456;2024-02-21T03:54:34;6.40;99.90
18384;DHT22;9318;48.644;9.456;2024-02-21T03:57:00;6.40;99.90
18384;DHT22;9318;48.644;9.456;2024-02-21T03:59:27;6.30;99.90
18384;DHT22;9318;48.644;9.456;2024-02-21T04:01:54;6.30;99.90
18384;DHT22;9318;48.644;9.456;2024-02-21T04:04:21;6.30;99.90
18384;DHT22;9318;48.644;9.456;2024-02-21T04:06:50;6.30;99.90
18384;DHT22;9318;48.644;9.456;2024-02-21T04:09:17;6.30;99.90
18384;DHT22;9318;48.644;9.456;2024-02-21T04:11:44;6.30;99.90
18384;DHT22;9318;48.644;9.456;2024-02-21T04:14:11;6.40;99.90
18384;DHT22;9318;48.644;9.456;2024-02-21T04:16:37;6.40;99.90
18384;DHT22;9318;48.644;9.456;2024-02-21T04:19:05;6.40;99.90
18384;DHT22;9318;48.644;9.456;2024-02-21T04:21:31;6.40;99.90
18384;DHT22;9318;48.644;9.456;2024-02-21T04:23:59;6.40;99.90
18384;DHT22;9318;48.644;9.456;2024-02-21T04:26:27;6.40;99.90
18384;DHT22;9318;48.644;9.456;2024-02-21T04:28:54;6.40;99.90
18384;DHT22;9318;48.644;9.456;2024-02-21T04:31:21;6.40;99.90
18384;DHT22;9318;48.644;9.456;2024-02-21T04:33:47;6.40;99.90
18384;DHT22;9318;48.644;9.456;2024-02-21T04:36:14;6.40;99.90
18384;DHT22;9318;48.644;9.456;2024-02-21T04:38:41;6.40;99.90
18384;DHT22;9318;48.644;9.456;2024-02-21T04:41:09;6.30;99.90
18384;DHT22;9318;48.644;9.456;2024-02-21T04:43:36;6.30;99.90
18384;DHT22;9318;48.644;9.456;2024-02-21T04:46:04;6.30;99.90
18384;DHT22;9318;48.644;9.456;2024-02-21T04:48:30;6.30;99.90
18384;DHT22;9318;48.644;9.456;2024-02-21T04:50:57;6.20;99.90
18384;DHT22;9318;48.644;9.456;2024-02-21T04:53:24;6.20;99.90
18384;DHT22;9318;48.644;9.456;2024-02-21T04:55:51;6.10;99.90
18384;DHT22;9318;48.644;9.456;2024-02-21T04:58:19;6.10;99.90
18384;DHT22;9318;48.644;9.456;2024-02-21T05:00:45;6.00;99.90
18384;DHT22;9318;48.644;9.456;2024-02-21T05:03:12;5.90;99.90
18384;DHT22;9318;48.644;9.456;2024-02-21T05:05:39;5.90;99.90
18384;DHT22;9318;48.644;9.456;2024-02-21T05:08:06;5.80;99.90
18384;DHT22;9318;48.644;9.456;2024-02-21T05:10:33;5.80;99.90
18384;DHT22;9318;48.644;9.456;2024-02-21T05:13:00;5.70;99.90
18384;DHT22;9318;48.644;9.456;2024-02-21T05:15:28;5.70;99.90
18384;DHT22;9318;48.644;9.456;2024-02-21T05:17:55;5.60;99.90
18384;DHT22;9318;48.644;9.456;2024-02-21T05:20:21;5.60;99.90
18384;DHT22;9318;48.644;9.456;2024-02-21T05:22:48;5.40;99.90
18384;DHT22;9318;48.644;9.456;2024-02-21T05:25:15;5.40;99.90
18384;DHT22;9318;48.644;9.456;2024-02-21T05:27:42;5.30;99.90
18384;DHT22;9318;48.644;9.456;2024-02-21T05:30:09;5.30;99.90
18384;DHT22;9318;48.644;9.456;2024-02-21T05:32:37;5.20;99.90
18384;DHT22;9318;48.644;9.456;2024-02-21T05:35:04;5.20;99.90
18384;DHT22;9318;48.644;9.456;2024-02-21T05:37:31;5.20;99.90
18384;DHT22;9318;48.644;9.456;2024-02-21T05:39:58;5.20;99.90
18384;DHT22;9318;48.644;9.456;2024-02-21T05:42:25;5.10;99.90
18384;DHT22;9318;48.644;9.456;2024-02-21T05:44:51;5.00;99.90
18384;DHT22;9318;48.644;9.456;2024-02-21T05:47:18;5.00;99.90
18384;DHT22;9318;48.644;9.456;2024-02-21T05:49:47;5.00;99.90
18384;DHT22;9318;48.644;9.456;2024-02-21T05:52:14;5.00;99.90
18384;DHT22;9318;48.644;9.456;2024-02-21T05:54:41;5.00;99.90
18384;DHT22;9318;48.644;9.456;2024-02-21T05:57:08;4.90;99.90
18384;DHT22;9318;48.644;9.456;2024-02-21T05:59:34;4.90;99.90
18384;DHT22;9318;48.644;9.456;2024-02-21T06:02:05;4.80;99.90
18384;DHT22;9318;48.644;9.456;2024-02-21T06:04:32;4.80;99.90
18384;DHT22;9318;48.644;9.456;2024-02-21T06:07:00;4.70;99.90
18384;DHT22;9318;48.644;9.456;2024-02-21T06:09:27;4.70;99.90
18384;DHT22;9318;48.644;9.456;2024-02-21T06:11:54;4.60;99.90
18384;DHT22;9318;48.644;9.456;2024-02-21T06:14:20;4.60;99.90
18384;DHT22;9318;48.644;9.456;2024-02-21T06:16:47;4.50;99.90
18384;DHT22;9318;48.644;9.456;2024-02-21T06:19:14;4.50;99.90
18384;DHT22;9318;48.644;9.456;2024-02-21T06:21:41;4.50;99.90
18384;DHT22;9318;48.644;9.456;2024-02-21T06:24:09;4.50;99.90
18384;DHT22;9318;48.644;9.456;2024-02-21T06:26:35;4.50;99.90
18384;DHT22;9318;48.644;9.456;2024-02-21T06:29:02;4.50;99.90
18384;DHT22;9318;48.644;9.456;2024-02-21T06:31:29;4.60;99.90
18384;DHT22;9318;48.644;9.456;2024-02-21T06:33:56;4.60;99.90
18384;DHT22;9318;48.644;9.456;2024-02-21T06:36:23;4.60;99.90
18384;DHT22;9318;48.644;9.456;2024-02-21T06:38:50;4.60;99.90
18384;DHT22;9318;48.644;9.456;2024-02-21T06:41:18;4.60;99.90
18384;DHT22;9318;48.644;9.456;2024-02-21T06:43:45;4.70;99.90
18384;DHT22;9318;48.644;9.456;2024-02-21T06:46:12;4.80;99.90
18384;DHT22;9318;48.644;9.456;2024-02-21T06:48:49;4.90;99.90
18384;DHT22;9318;48.644;9.456;2024-02-21T06:51:15;5.00;99.90
18384;DHT22;9318;48.644;9.456;2024-02-21T06:53:42;5.00;99.90
18384;DHT22;9318;48.644;9.456;2024-02-21T06:56:10;5.10;99.90
18384;DHT22;9318;48.644;9.456;2024-02-21T06:58:38;5.20;99.90
18384;DHT22;9318;48.644;9.456;2024-02-21T07:01:05;5.30;99.90
18384;DHT22;9318;48.644;9.456;2024-02-21T07:03:31;5.80;99.90
18384;DHT22;9318;48.644;9.456;2024-02-21T07:05:58;6.40;99.90
18384;DHT22;9318;48.644;9.456;2024-02-21T07:08:25;7.10;99.90
18384;DHT22;9318;48.644;9.456;2024-02-21T07:10:52;7.80;99.90
18384;DHT22;9318;48.644;9.456;2024-02-21T07:13:19;8.30;99.90
18384;DHT22;9318;48.644;9.456;2024-02-21T07:15:48;8.70;99.90
18384;DHT22;9318;48.644;9.456;2024-02-21T07:18:16;9.00;99.90
18384;DHT22;9318;48.644;9.456;2024-02-21T07:20:43;9.30;99.90
18384;DHT22;9318;48.644;9.456;2024-02-21T07:23:09;9.50;99.90
18384;DHT22;9318;48.644;9.456;2024-02-21T07:25:36;9.70;99.90
18384;DHT22;9318;48.644;9.456;2024-02-21T07:28:03;10.00;99.90
18384;DHT22;9318;48.644;9.456;2024-02-21T07:30:30;10.00;99.90
18384;DHT22;9318;48.644;9.456;2024-02-21T07:32:58;10.20;99.90
18384;DHT22;9318;48.644;9.456;2024-02-21T07:35:25;10.40;99.90
18384;DHT22;9318;48.644;9.456;2024-02-21T07:37:52;10.70;99.90
18384;DHT22;9318;48.644;9.456;2024-02-21T07:40:19;11.10;99.90
18384;DHT22;9318;48.644;9.456;2024-02-21T07:42:46;11.70;99.90
18384;DHT22;9318;48.644;9.456;2024-02-21T07:45:13;12.00;99.90
18384;DHT22;9318;48.644;9.456;2024-02-21T07:47:39;12.20;99.90
18384;DHT22;9318;48.644;9.456;2024-02-21T07:50:08;12.70;99.90
18384;DHT22;9318;48.644;9.456;2024-02-21T07:52:35;12.90;99.90
18384;DHT22;9318;48.644;9.456;2024-02-21T07:55:02;13.00;99.90
18384;DHT22;9318;48.644;9.456;2024-02-21T07:57:29;13.00;99.90
18384;DHT22;9318;48.644;9.456;2024-02-21T07:59:55;13.10;99.90
18384;DHT22;9318;48.644;9.456;2024-02-21T08:02:22;13.30;99.90
18384;DHT22;9318;48.644;9.456;2024-02-21T08:04:49;13.40;99.90
18384;DHT22;9318;48.644;9.456;2024-02-21T08:07:17;13.60;99.90
18384;DHT22;9318;48.644;9.456;2024-02-21T08:09:44;13.90;99.90
18384;DHT22;9318;48.644;9.456;2024-02-21T08:12:11;13.90;99.90
18384;DHT22;9318;48.644;9.456;2024-02-21T08:14:38;13.80;99.90
18384;DHT22;9318;48.644;9.456;2024-02-21T08:17:05;14.30;99.90
18384;DHT22;9318;48.644;9.456;2024-02-21T08:19:31;14.50;99.90
18384;DHT22;9318;48.644;9.456;2024-02-21T08:21:58;14.30;99.90
18384;DHT22;9318;48.644;9.456;2024-02-21T08:24:27;14.50;99.90
18384;DHT22;9318;48.644;9.456;2024-02-21T08:26:53;15.00;99.90
18384;DHT22;9318;48.644;9.456;2024-02-21T08:29:20;15.30;99.90
18384;DHT22;9318;48.644;9.456;2024-02-21T08:31:47;16.00;99.90
18384;DHT22;9318;48.644;9.456;2024-02-21T08:34:14;16.50;99.90
18384;DHT22;9318;48.644;9.456;2024-02-21T08:36:40;16.80;99.90
18384;DHT22;9318;48.644;9.456;2024-02-21T08:39:07;17.30;99.90
18384;DHT22;9318;48.644;9.456;2024-02-21T08:41:36;17.50;99.90
18384;DHT22;9318;48.644;9.456;2024-02-21T08:44:04;17.70;99.90
18384;DHT22;9318;48.644;9.456;2024-02-21T08:46:31;17.60;99.90
18384;DHT22;9318;48.644;9.456;2024-02-21T08:48:57;16.70;99.90
18384;DHT22;9318;48.644;9.456;2024-02-21T08:51:24;16.00;99.90
18384;DHT22;9318;48.644;9.456;2024-02-21T08:53:52;16.10;99.90
18384;DHT22;9318;48.644;9.456;2024-02-21T08:56:19;16.00;99.90
18384;DHT22;9318;48.644;9.456;2024-02-21T08:58:47;16.00;99.90
18384;DHT22;9318;48.644;9.456;2024-02-21T09:01:14;15.60;99.90
18384;DHT22;9318;48.644;9.456;2024-02-21T09:03:40;15.50;99.90
18384;DHT22;9318;48.644;9.456;2024-02-21T09:06:09;15.20;99.90
18384;DHT22;9318;48.644;9.456;2024-02-21T09:08:36;14.80;99.90
18384;DHT22;9318;48.644;9.456;2024-02-21T09:11:03;14.60;99.90
18384;DHT22;9318;48.644;9.456;2024-02-21T09:13:29;14.30;99.90
18384;DHT22;9318;48.644;9.456;2024-02-21T09:15:58;14.20;99.90
18384;DHT22;9318;48.644;9.456;2024-02-21T09:18:25;14.20;99.90
18384;DHT22;9318;48.644;9.456;2024-02-21T09:20:51;13.90;99.90
18384;DHT22;9318;48.644;9.456;2024-02-21T09:23:18;13.60;99.90
18384;DHT22;9318;48.644;9.456;2024-02-21T09:25:46;13.30;99.90
18384;DHT22;9318;48.644;9.456;2024-02-21T09:28:12;13.10;99.90
18384;DHT22;9318;48.644;9.456;2024-02-21T09:30:39;12.90;99.90
18384;DHT22;9318;48.644;9.456;2024-02-21T09:33:07;12.80;99.90
18384;DHT22;9318;48.644;9.456;2024-02-21T09:35:34;12.60;99.90
18384;DHT22;9318;48.644;9.456;2024-02-21T09:38:01;12.40;99.90
18384;DHT22;9318;48.644;9.456;2024-02-21T09:40:28;12.30;99.90
18384;DHT22;9318;48.644;9.456;2024-02-21T09:43:02;12.50;99.90
18384;DHT22;9318;48.644;9.456;2024-02-21T09:45:32;12.70;99.90
18384;DHT22;9318;48.644;9.456;2024-02-21T09:48:23;12.90;99.90
18384;DHT22;9318;48.644;9.456;2024-02-21T09:50:53;13.00;99.90
18384;DHT22;9318;48.644;9.456;2024-02-21T09:53:22;13.20;99.90
18384;DHT22;9318;48.644;9.456;2024-02-21T09:55:50;13.50;99.90
18384;DHT22;9318;48.644;9.456;2024-02-21T09:58:18;13.90;99.90
18384;DHT22;9318;48.644;9.456;2024-02-21T10:00:45;14.00;99.90
18384;DHT22;9318;48.644;9.456;2024-02-21T10:03:12;13.90;99.90
18384;DHT22;9318;48.644;9.456;2024-02-21T10:05:47;14.00;99.90
18384;DHT22;9318;48.644;9.456;2024-02-21T10:08:15;14.00;99.90
18384;DHT22;9318;48.644;9.456;2024-02-21T10:10:43;14.00;99.90
18384;DHT22;9318;48.644;9.456;2024-02-21T10:13:10;13.80;99.90
18384;DHT22;9318;48.644;9.456;2024-02-21T10:15:37;13.50;99.90
18384;DHT22;9318;48.644;9.456;2024-02-21T10:18:04;13.20;99.90
18384;DHT22;9318;48.644;9.456;2024-02-21T10:20:32;13.10;99.90
18384;DHT22;9318;48.644;9.456;2024-02-21T10:23:04;13.10;99.90
18384;DHT22;9318;48.644;9.456;2024-02-21T10:25:33;13.10;99.90
18384;DHT22;9318;48.644;9.456;2024-02-21T10:28:01;13.00;99.90
18384;DHT22;9318;48.644;9.456;2024-02-21T10:30:28;13.00;99.90
18384;DHT22;9318;48.644;9.456;2024-02-21T10:32:55;13.00;99.90
18384;DHT22;9318;48.644;9.456;2024-02-21T10:35:26;13.10;99.90
18384;DHT22;9318;48.644;9.456;2024-02-21T10:37:54;13.30;99.90
18384;DHT22;9318;48.644;9.456;2024-02-21T10:40:23;13.50;99.90
18384;DHT22;9318;48.644;9.456;2024-02-21T10:42:56;13.80;99.90
18384;DHT22;9318;48.644;9.456;2024-02-21T10:45:29;14.00;99.90
18384;DHT22;9318;48.644;9.456;2024-02-21T10:48:08;14.00;99.90
18384;DHT22;9318;48.644;9.456;2024-02-21T10:50:47;13.90;99.90
18384;DHT22;9318;48.644;9.456;2024-02-21T10:53:24;13.90;99.90
18384;DHT22;9318;48.644;9.456;2024-02-21T10:56:04;13.90;99.90
18384;DHT22;9318;48.644;9.456;2024-02-21T10:58:32;13.90;99.90
18384;DHT22;9318;48.644;9.456;2024-02-21T11:00:59;14.00;99.90
18384;DHT22;9318;48.644;9.456;2024-02-21T11:03:26;13.90;99.90
18384;DHT22;9318;48.644;9.456;2024-02-21T11:05:53;14.00;99.90
18384;DHT22;9318;48.644;9.456;2024-02-21T11:08:20;14.10;99.90
18384;DHT22;9318;48.644;9.456;2024-02-21T11:10:47;14.10;99.90
18384;DHT22;9318;48.644;9.456;2024-02-21T11:13:15;14.20;99.90
18384;DHT22;9318;48.644;9.456;2024-02-21T11:15:43;14.20;99.90
18384;DHT22;9318;48.644;9.456;2024-02-21T11:18:09;14.20;99.90
18384;DHT22;9318;48.644;9.456;2024-02-21T11:20:38;14.20;99.90
18384;DHT22;9318;48.644;9.456;2024-02-21T11:23:04;14.20;99.90
18384;DHT22;9318;48.644;9.456;2024-02-21T11:25:31;14.10;99.90
18384;DHT22;9318;48.644;9.456;2024-02-21T11:28:00;14.10;99.90
18384;DHT22;9318;48.644;9.456;2024-02-21T11:30:30;14.00;99.90
18384;DHT22;9318;48.644;9.456;2024-02-21T11:33:01;13.90;99.90
18384;DHT22;9318;48.644;9.456;2024-02-21T11:35:31;13.80;99.90
18384;DHT22;9318;48.644;9.456;2024-02-21T11:38:08;13.90;99.90
18384;DHT22;9318;48.644;9.456;2024-02-21T11:40:38;13.90;99.90
18384;DHT22;9318;48.644;9.456;2024-02-21T11:43:05;13.80;99.90
18384;DHT22;9318;48.644;9.456;2024-02-21T11:45:33;13.80;99.90
18384;DHT22;9318;48.644;9.456;2024-02-21T11:48:00;13.70;99.90
18384;DHT22;9318;48.644;9.456;2024-02-21T11:50:29;13.70;99.90
18384;DHT22;9318;48.644;9.456;2024-02-21T11:52:57;13.70;99.90
18384;DHT22;9318;48.644;9.456;2024-02-21T11:55:24;13.70;99.90
18384;DHT22;9318;48.644;9.456;2024-02-21T11:57:51;13.70;99.90
18384;DHT22;9318;48.644;9.456;2024-02-21T12:00:18;13.70;99.90
18384;DHT22;9318;48.644;9.456;2024-02-21T12:02:48;13.90;99.90
18384;DHT22;9318;48.644;9.456;2024-02-21T12:05:16;14.00;99.90
18384;DHT22;9318;48.644;9.456;2024-02-21T12:07:45;14.10;99.90
18384;DHT22;9318;48.644;9.456;2024-02-21T12:10:13;14.20;99.90
18384;DHT22;9318;48.644;9.456;2024-02-21T12:12:40;14.20;99.90
18384;DHT22;9318;48.644;9.456;2024-02-21T12:15:08;14.20;99.90
18384;DHT22;9318;48.644;9.456;2024-02-21T12:17:35;14.20;99.90
18384;DHT22;9318;48.644;9.456;2024-02-21T12:20:04;14.20;99.90
18384;DHT22;9318;48.644;9.456;2024-02-21T12:22:35;14.20;99.90
18384;DHT22;9318;48.644;9.456;2024-02-21T12:25:03;14.00;99.90
18384;DHT22;9318;48.644;9.456;2024-02-21T12:27:33;13.90;99.90
18384;DHT22;9318;48.644;9.456;2024-02-21T12:30:00;13.70;99.90
18384;DHT22;9318;48.644;9.456;2024-02-21T12:32:26;13.70;99.90
18384;DHT22;9318;48.644;9.456;2024-02-21T12:34:53;13.70;99.90
18384;DHT22;9318;48.644;9.456;2024-02-21T12:37:22;13.70;99.90
18384;DHT22;9318;48.644;9.456;2024-02-21T12:39:48;13.70;99.90
18384;DHT22;9318;48.644;9.456;2024-02-21T12:42:15;13.70;99.90
18384;DHT22;9318;48.644;9.456;2024-02-21T12:44:42;13.70;99.90
18384;DHT22;9318;48.644;9.456;2024-02-21T12:47:10;13.70;99.90
18384;DHT22;9318;48.644;9.456;2024-02-21T12:49:36;13.70;99.90
18384;DHT22;9318;48.644;9.456;2024-02-21T12:52:03;13.70;99.90
18384;DHT22;9318;48.644;9.456;2024-02-21T12:54:31;13.80;99.90
18384;DHT22;9318;48.644;9.456;2024-02-21T12:56:59;13.80;99.90
18384;DHT22;9318;48.644;9.456;2024-02-21T12:59:28;13.80;99.90
18384;DHT22;9318;48.644;9.456;2024-02-21T13:01:55;13.80;99.90
18384;DHT22;9318;48.644;9.456;2024-02-21T13:04:21;13.80;99.90
18384;DHT22;9318;48.644;9.456;2024-02-21T13:06:49;13.80;99.90
18384;DHT22;9318;48.644;9.456;2024-02-21T13:09:16;13.70;99.90
18384;DHT22;9318;48.644;9.456;2024-02-21T13:11:45;13.60;99.90
18384;DHT22;9318;48.644;9.456;2024-02-21T13:14:11;13.60;99.90
18384;DHT22;9318;48.644;9.456;2024-02-21T13:16:38;13.60;99.90
18384;DHT22;9318;48.644;9.456;2024-02-21T13:19:06;13.60;99.90
18384;DHT22;9318;48.644;9.456;2024-02-21T13:21:33;13.60;99.90
18384;DHT22;9318;48.644;9.456;2024-02-21T13:24:00;13.60;99.90
18384;DHT22;9318;48.644;9.456;2024-02-21T13:26:27;13.60;99.90
18384;DHT22;9318;48.644;9.456;2024-02-21T13:28:55;13.60;99.90
18384;DHT22;9318;48.644;9.456;2024-02-21T13:31:22;13.60;99.90
18384;DHT22;9318;48.644;9.456;2024-02-21T13:33:50;13.60;99.90
18384;DHT22;9318;48.644;9.456;2024-02-21T13:36:17;13.60;99.90
18384;DHT22;9318;48.644;9.456;2024-02-21T13:38:44;13.70;99.90
18384;DHT22;9318;48.644;9.456;2024-02-21T13:41:12;13.70;99.90
18384;DHT22;9318;48.644;9.456;2024-02-21T13:43:39;13.70;99.90
18384;DHT22;9318;48.644;9.456;2024-02-21T13:46:07;13.70;99.90
18384;DHT22;9318;48.644;9.456;2024-02-21T13:48:35;13.70;99.90
18384;DHT22;9318;48.644;9.456;2024-02-21T13:51:02;13.70;99.90
18384;DHT22;9318;48.644;9.456;2024-02-21T13:53:29;13.80;99.90
18384;DHT22;9318;48.644;9.456;2024-02-21T13:55:55;13.80;99.90
18384;DHT22;9318;48.644;9.456;2024-02-21T13:58:22;13.80;99.90
18384;DHT22;9318;48.644;9.456;2024-02-21T14:00:50;13.90;99.90
18384;DHT22;9318;48.644;9.456;2024-02-21T14:03:18;13.90;99.90
18384;DHT22;9318;48.644;9.456;2024-02-21T14:05:45;13.90;99.90
18384;DHT22;9318;48.644;9.456;2024-02-21T14:08:13;13.80;99.90
18384;DHT22;9318;48.644;9.456;2024-02-21T14:10:40;13.80;99.90
18384;DHT22;9318;48.644;9.456;2024-02-21T14:13:07;13.80;99.90
18384;DHT22;9318;48.644;9.456;2024-02-21T14:15:33;13.80;99.90
18384;DHT22;9318;48.644;9.456;2024-02-21T14:18:02;13.80;99.90
18384;DHT22;9318;48.644;9.456;2024-02-21T14:20:32;13.80;99.90
18384;DHT22;9318;48.644;9.456;2024-02-21T14:22:59;13.80;99.90
18384;DHT22;9318;48.644;9.456;2024-02-21T14:25:26;13.70;99.90
18384;DHT22;9318;48.644;9.456;2024-02-21T14:27:52;13.60;99.90
18384;DHT22;9318;48.644;9.456;2024-02-21T14:30:19;13.60;99.90
18384;DHT22;9318;48.644;9.456;2024-02-21T14:32:46;13.60;99.90
18384;DHT22;9318;48.644;9.456;2024-02-21T14:35:13;13.60;99.90
18384;DHT22;9318;48.644;9.456;2024-02-21T14:37:42;13.60;99.90
18384;DHT22;9318;48.644;9.456;2024-02-21T14:40:09;13.50;99.90
18384;DHT22;9318;48.644;9.456;2024-02-21T14:42:36;13.50;99.90
18384;DHT22;9318;48.644;9.456;2024-02-21T14:45:04;13.50;99.90
18384;DHT22;9318;48.644;9.456;2024-02-21T14:47:31;13.50;99.90
18384;DHT22;9318;48.644;9.456;2024-02-21T14:49:58;13.50;99.90
18384;DHT22;9318;48.644;9.456;2024-02-21T14:52:25;13.40;99.90
18384;DHT22;9318;48.644;9.456;2024-02-21T14:54:54;13.40;99.90
18384;DHT22;9318;48.644;9.456;2024-02-21T14:57:21;13.50;99.90
18384;DHT22;9318;48.644;9.456;2024-02-21T14:59:49;13.50;99.90
18384;DHT22;9318;48.644;9.456;2024-02-21T15:02:21;13.50;99.90
18384;DHT22;9318;48.644;9.456;2024-02-21T15:04:48;13.50;99.90
18384;DHT22;9318;48.644;9.456;2024-02-21T15:07:16;13.40;99.90
18384;DHT22;9318;48.644;9.456;2024-02-21T15:09:44;13.40;99.90
18384;DHT22;9318;48.644;9.456;2024-02-21T15:12:12;13.40;99.90
18384;DHT22;9318;48.644;9.456;2024-02-21T15:14:39;13.40;99.90
18384;DHT22;9318;48.644;9.456;2024-02-21T15:17:06;13.40;99.90
18384;DHT22;9318;48.644;9.456;2024-02-21T15:19:32;13.40;99.90
18384;DHT22;9318;48.644;9.456;2024-02-21T15:22:00;13.30;99.90
18384;DHT22;9318;48.644;9.456;2024-02-21T15:24:26;13.30;99.90
18384;DHT22;9318;48.644;9.456;2024-02-21T15:26:53;13.20;99.90
18384;DHT22;9318;48.644;9.456;2024-02-21T15:29:21;13.20;99.90
18384;DHT22;9318;48.644;9.456;2024-02-21T15:31:49;13.20;99.90
18384;DHT22;9318;48.644;9.456;2024-02-21T15:34:16;13.20;99.90
18384;DHT22;9318;48.644;9.456;2024-02-21T15:36:43;13.10;99.90
18384;DHT22;9318;48.644;9.456;2024-02-21T15:39:10;13.10;99.90
18384;DHT22;9318;48.644;9.456;2024-02-21T15:41:37;13.00;99.90
18384;DHT22;9318;48.644;9.456;2024-02-21T15:44:04;13.10;99.90
18384;DHT22;9318;48.644;9.456;2024-02-21T15:46:32;13.00;99.90
18384;DHT22;9318;48.644;9.456;2024-02-21T15:49:02;13.00;99.90
18384;DHT22;9318;48.644;9.456;2024-02-21T15:51:29;12.90;99.90
18384;DHT22;9318;48.644;9.456;2024-02-21T15:53:56;12.90;99.90